sensor_id;sensor_type;location;lat;lon;timestamp;pressure;altitude;pressure_sealevel;temperature;humidity
32033;BME280;31720;52.638;9.216;2022-11-24T00:02:00;100107.53;;;5.66;100.00
32033;BME280;31720;52.638;9.216;2022-11-24T00:05:01;100104.16;;;5.64;100.00
32033;BME280;31720;52.638;9.216;2022-11-24T00:08:03;100109.56;;;5.59;100.00
32033;BME280;31720;52.638;9.216;2022-11-24T00:11:06;100113.13;;;5.56;100.00
32033;BME280;31720;52.638;9.216;2022-11-24T00:14:10;100122.72;;;5.56;100.00
32033;BME280;31720;52.638;9.216;2022-11-24T00:17:11;100114.97;;;5.54;100.00
32033;BME280;31720;52.638;9.216;2022-11-24T00:20:13;100119.38;;;5.52;100.00
32033;BME280;31720;52.638;9.216;2022-11-24T00:23:14;100122.84;;;5.53;100.00
32033;BME280;31720;52.638;9.216;2022-11-24T00:26:18;100123.69;;;5.53;100.00
32033;BME280;31720;52.638;9.216;2022-11-24T00:29:22;100129.09;;;5.49;100.00
32033;BME280;31720;52.638;9.216;2022-11-24T00:32:23;100131.78;;;5.47;100.00
32033;BME280;31720;52.638;9.216;2022-11-24T00:35:24;100131.84;;;5.46;100.00
32033;BME280;31720;52.638;9.216;2022-11-24T00:38:26;100138.94;;;5.42;100.00
32033;BME280;31720;52.638;9.216;2022-11-24T00:41:28;100146.88;;;5.39;100.00
32033;BME280;31720;52.638;9.216;2022-11-24T00:44:31;100139.91;;;5.40;100.00
32033;BME280;31720;52.638;9.216;2022-11-24T00:47:33;100155.50;;;5.41;100.00
32033;BME280;31720;52.638;9.216;2022-11-24T00:50:34;100148.44;;;5.43;100.00
32033;BME280;31720;52.638;9.216;2022-11-24T00:53:36;100139.66;;;5.46;100.00
32033;BME280;31720;52.638;9.216;2022-11-24T00:56:38;100146.38;;;5.51;100.00
32033;BME280;31720;52.638;9.216;2022-11-24T00:59:40;100147.09;;;5.55;100.00
32033;BME280;31720;52.638;9.216;2022-11-24T01:02:42;100148.06;;;5.52;100.00
32033;BME280;31720;52.638;9.216;2022-11-24T01:05:43;100146.44;;;5.50;100.00
32033;BME280;31720;52.638;9.216;2022-11-24T01:08:45;100157.84;;;5.47;100.00
32033;BME280;31720;52.638;9.216;2022-11-24T01:11:46;100160.56;;;5.44;100.00
32033;BME280;31720;52.638;9.216;2022-11-24T01:15:05;100173.72;;;5.41;100.00
32033;BME280;31720;52.638;9.216;2022-11-24T01:18:07;100173.00;;;5.38;100.00
32033;BME280;31720;52.638;9.216;2022-11-24T01:21:09;100160.81;;;5.38;100.00
32033;BME280;31720;52.638;9.216;2022-11-24T01:24:12;100167.72;;;5.39;100.00
32033;BME280;31720;52.638;9.216;2022-11-24T01:27:13;100163.41;;;5.38;100.00
32033;BME280;31720;52.638;9.216;2022-11-24T01:30:16;100175.59;;;5.38;100.00
32033;BME280;31720;52.638;9.216;2022-11-24T01:33:18;100171.44;;;5.33;100.00
32033;BME280;31720;52.638;9.216;2022-11-24T01:36:19;100184.56;;;5.30;100.00
32033;BME280;31720;52.638;9.216;2022-11-24T01:39:21;100169.84;;;5.29;100.00
32033;BME280;31720;52.638;9.216;2022-11-24T01:42:22;100181.09;;;5.31;100.00
32033;BME280;31720;52.638;9.216;2022-11-24T01:45:34;100179.06;;;5.38;100.00
32033;BME280;31720;52.638;9.216;2022-11-24T01:48:42;100181.34;;;5.46;100.00
32033;BME280;31720;52.638;9.216;2022-11-24T01:51:47;100175.88;;;5.52;100.00
32033;BME280;31720;52.638;9.216;2022-11-24T01:54:52;100172.31;;;5.54;100.00
32033;BME280;31720;52.638;9.216;2022-11-24T01:57:58;100178.28;;;5.56;100.00
32033;BME280;31720;52.638;9.216;2022-11-24T02:01:03;100184.53;;;5.52;100.00
32033;BME280;31720;52.638;9.216;2022-11-24T02:04:07;100183.69;;;5.52;100.00
32033;BME280;31720;52.638;9.216;2022-11-24T02:07:12;100181.16;;;5.50;100.00
32033;BME280;31720;52.638;9.216;2022-11-24T02:10:15;100188.13;;;5.50;100.00
32033;BME280;31720;52.638;9.216;2022-11-24T02:13:17;100188.06;;;5.51;100.00
32033;BME280;31720;52.638;9.216;2022-11-24T02:16:19;100188.78;;;5.55;100.00
32033;BME280;31720;52.638;9.216;2022-11-24T02:19:30;100191.44;;;5.53;100.00
32033;BME280;31720;52.638;9.216;2022-11-24T02:22:42;100196.72;;;5.52;100.00
32033;BME280;31720;52.638;9.216;2022-11-24T02:25:50;100202.66;;;5.55;100.00
32033;BME280;31720;52.638;9.216;2022-11-24T02:28:56;100198.94;;;5.61;100.00
32033;BME280;31720;52.638;9.216;2022-11-24T02:32:01;100200.44;;;5.67;100.00
32033;BME280;31720;52.638;9.216;2022-11-24T02:35:05;100208.72;;;5.76;100.00
32033;BME280;31720;52.638;9.216;2022-11-24T02:38:10;100211.81;;;5.86;100.00
32033;BME280;31720;52.638;9.216;2022-11-24T02:41:14;100214.06;;;5.95;100.00
32033;BME280;31720;52.638;9.216;2022-11-24T02:44:19;100216.31;;;6.03;100.00
32033;BME280;31720;52.638;9.216;2022-11-24T02:47:22;100205.66;;;6.09;100.00
32033;BME280;31720;52.638;9.216;2022-11-24T02:50:23;100214.03;;;6.16;100.00
32033;BME280;31720;52.638;9.216;2022-11-24T02:53:25;100212.88;;;6.23;100.00
32033;BME280;31720;52.638;9.216;2022-11-24T02:56:26;100218.84;;;6.25;100.00
32033;BME280;31720;52.638;9.216;2022-11-24T02:59:29;100233.47;;;6.29;100.00
32033;BME280;31720;52.638;9.216;2022-11-24T03:02:30;100226.41;;;6.31;100.00
32033;BME280;31720;52.638;9.216;2022-11-24T03:05:31;100233.19;;;6.35;100.00
32033;BME280;31720;52.638;9.216;2022-11-24T03:08:33;100232.13;;;6.39;100.00
32033;BME280;31720;52.638;9.216;2022-11-24T03:11:35;100234.63;;;6.42;100.00
32033;BME280;31720;52.638;9.216;2022-11-24T03:14:37;100238.84;;;6.45;100.00
32033;BME280;31720;52.638;9.216;2022-11-24T03:17:39;100231.72;;;6.48;100.00
32033;BME280;31720;52.638;9.216;2022-11-24T03:20:41;100240.28;;;6.52;100.00
32033;BME280;31720;52.638;9.216;2022-11-24T03:23:43;100239.84;;;6.61;100.00
32033;BME280;31720;52.638;9.216;2022-11-24T03:26:44;100248.00;;;6.74;100.00
32033;BME280;31720;52.638;9.216;2022-11-24T03:29:47;100241.97;;;6.72;100.00
32033;BME280;31720;52.638;9.216;2022-11-24T03:32:50;100250.81;;;6.69;100.00
32033;BME280;31720;52.638;9.216;2022-11-24T03:35:51;100250.28;;;6.61;100.00
32033;BME280;31720;52.638;9.216;2022-11-24T03:38:52;100253.97;;;6.57;100.00
32033;BME280;31720;52.638;9.216;2022-11-24T03:41:54;100261.06;;;6.53;100.00
32033;BME280;31720;52.638;9.216;2022-11-24T03:44:56;100265.53;;;6.51;100.00
32033;BME280;31720;52.638;9.216;2022-11-24T03:47:58;100260.63;;;6.44;100.00
32033;BME280;31720;52.638;9.216;2022-11-24T03:51:00;100262.53;;;6.40;100.00
32033;BME280;31720;52.638;9.216;2022-11-24T03:54:03;100267.09;;;6.35;100.00
32033;BME280;31720;52.638;9.216;2022-11-24T03:57:04;100268.75;;;6.38;100.00
32033;BME280;31720;52.638;9.216;2022-11-24T04:00:09;100272.91;;;6.42;100.00
32033;BME280;31720;52.638;9.216;2022-11-24T04:03:11;100279.06;;;6.41;100.00
32033;BME280;31720;52.638;9.216;2022-11-24T04:06:12;100279.09;;;6.39;100.00
32033;BME280;31720;52.638;9.216;2022-11-24T04:09:14;100278.53;;;6.32;100.00
32033;BME280;31720;52.638;9.216;2022-11-24T04:12:15;100282.28;;;6.27;100.00
32033;BME280;31720;52.638;9.216;2022-11-24T04:15:37;100290.28;;;6.22;100.00
32033;BME280;31720;52.638;9.216;2022-11-24T04:18:38;100287.72;;;6.21;100.00
32033;BME280;31720;52.638;9.216;2022-11-24T04:21:40;100300.78;;;6.21;100.00
32033;BME280;31720;52.638;9.216;2022-11-24T04:24:41;100305.94;;;6.22;100.00
32033;BME280;31720;52.638;9.216;2022-11-24T04:27:42;100305.22;;;6.19;100.00
32033;BME280;31720;52.638;9.216;2022-11-24T04:30:45;100308.88;;;6.15;100.00
32033;BME280;31720;52.638;9.216;2022-11-24T04:33:47;100306.16;;;6.18;100.00
32033;BME280;31720;52.638;9.216;2022-11-24T04:36:48;100306.19;;;6.16;100.00
32033;BME280;31720;52.638;9.216;2022-11-24T04:39:49;100303.84;;;6.10;100.00
32033;BME280;31720;52.638;9.216;2022-11-24T04:42:52;100306.19;;;5.96;100.00
32033;BME280;31720;52.638;9.216;2022-11-24T04:45:58;100318.38;;;5.95;100.00
32033;BME280;31720;52.638;9.216;2022-11-24T04:49:00;100325.50;;;5.90;100.00
32033;BME280;31720;52.638;9.216;2022-11-24T04:52:02;100323.94;;;5.86;100.00
32033;BME280;31720;52.638;9.216;2022-11-24T04:55:03;100326.66;;;5.83;100.00
32033;BME280;31720;52.638;9.216;2022-11-24T04:58:06;100331.88;;;5.83;100.00
32033;BME280;31720;52.638;9.216;2022-11-24T05:01:10;100329.75;;;5.71;100.00
32033;BME280;31720;52.638;9.216;2022-11-24T05:04:13;100335.03;;;5.69;100.00
32033;BME280;31720;52.638;9.216;2022-11-24T05:07:15;100334.97;;;5.71;100.00
32033;BME280;31720;52.638;9.216;2022-11-24T05:10:17;100342.75;;;5.72;100.00
32033;BME280;31720;52.638;9.216;2022-11-24T05:13:36;100335.88;;;5.70;100.00
32033;BME280;31720;52.638;9.216;2022-11-24T05:16:39;100342.78;;;5.71;100.00
32033;BME280;31720;52.638;9.216;2022-11-24T05:19:40;100354.03;;;5.73;100.00
32033;BME280;31720;52.638;9.216;2022-11-24T05:22:42;100354.06;;;5.71;100.00
32033;BME280;31720;52.638;9.216;2022-11-24T05:25:43;100356.94;;;5.65;100.00
32033;BME280;31720;52.638;9.216;2022-11-24T05:28:45;100354.22;;;5.68;100.00
32033;BME280;31720;52.638;9.216;2022-11-24T05:31:48;100357.50;;;5.72;100.00
32033;BME280;31720;52.638;9.216;2022-11-24T05:34:49;100359.28;;;5.71;100.00
32033;BME280;31720;52.638;9.216;2022-11-24T05:37:52;100373.16;;;5.72;100.00
32033;BME280;31720;52.638;9.216;2022-11-24T05:40:53;100367.25;;;5.68;100.00
32033;BME280;31720;52.638;9.216;2022-11-24T05:43:55;100365.59;;;5.66;100.00
32033;BME280;31720;52.638;9.216;2022-11-24T05:46:57;100365.84;;;5.59;100.00
32033;BME280;31720;52.638;9.216;2022-11-24T05:49:59;100367.81;;;5.53;100.00
32033;BME280;31720;52.638;9.216;2022-11-24T05:53:01;100363.78;;;5.46;100.00
32033;BME280;31720;52.638;9.216;2022-11-24T05:56:03;100369.88;;;5.45;100.00
32033;BME280;31720;52.638;9.216;2022-11-24T05:59:05;100371.59;;;5.46;100.00
32033;BME280;31720;52.638;9.216;2022-11-24T06:02:08;100375.03;;;5.46;100.00
32033;BME280;31720;52.638;9.216;2022-11-24T06:05:10;100382.97;;;5.43;100.00
32033;BME280;31720;52.638;9.216;2022-11-24T06:08:11;100390.88;;;5.40;100.00
32033;BME280;31720;52.638;9.216;2022-11-24T06:11:13;100391.19;;;5.32;100.00
32033;BME280;31720;52.638;9.216;2022-11-24T06:14:20;100396.09;;;5.40;100.00
32033;BME280;31720;52.638;9.216;2022-11-24T06:17:23;100399.56;;;5.41;100.00
32033;BME280;31720;52.638;9.216;2022-11-24T06:20:25;100403.81;;;5.43;100.00
32033;BME280;31720;52.638;9.216;2022-11-24T06:23:26;100404.72;;;5.42;100.00
32033;BME280;31720;52.638;9.216;2022-11-24T06:26:28;100403.81;;;5.43;100.00
32033;BME280;31720;52.638;9.216;2022-11-24T06:29:29;100406.31;;;5.46;100.00
32033;BME280;31720;52.638;9.216;2022-11-24T06:32:32;100402.69;;;5.50;100.00
32033;BME280;31720;52.638;9.216;2022-11-24T06:35:33;100403.53;;;5.51;100.00
32033;BME280;31720;52.638;9.216;2022-11-24T06:38:35;100411.38;;;5.49;100.00
32033;BME280;31720;52.638;9.216;2022-11-24T06:41:36;100418.44;;;5.47;100.00
32033;BME280;31720;52.638;9.216;2022-11-24T06:44:38;100426.25;;;5.47;100.00
32033;BME280;31720;52.638;9.216;2022-11-24T06:47:42;100428.19;;;5.42;100.00
32033;BME280;31720;52.638;9.216;2022-11-24T06:50:43;100430.94;;;5.38;100.00
32033;BME280;31720;52.638;9.216;2022-11-24T06:53:45;100433.66;;;5.34;100.00
32033;BME280;31720;52.638;9.216;2022-11-24T06:56:46;100432.91;;;5.31;100.00
32033;BME280;31720;52.638;9.216;2022-11-24T06:59:48;100445.94;;;5.31;100.00
32033;BME280;31720;52.638;9.216;2022-11-24T07:02:50;100447.03;;;5.25;100.00
32033;BME280;31720;52.638;9.216;2022-11-24T07:05:55;100454.91;;;5.24;100.00
32033;BME280;31720;52.638;9.216;2022-11-24T07:08:57;100461.91;;;5.22;100.00
32033;BME280;31720;52.638;9.216;2022-11-24T07:11:58;100460.22;;;5.21;100.00
32033;BME280;31720;52.638;9.216;2022-11-24T07:15:01;100468.28;;;5.13;100.00
32033;BME280;31720;52.638;9.216;2022-11-24T07:18:04;100467.41;;;5.14;100.00
32033;BME280;31720;52.638;9.216;2022-11-24T07:21:06;100478.69;;;5.15;100.00
32033;BME280;31720;52.638;9.216;2022-11-24T07:24:08;100469.16;;;5.14;100.00
32033;BME280;31720;52.638;9.216;2022-11-24T07:27:09;100482.19;;;5.14;100.00
32033;BME280;31720;52.638;9.216;2022-11-24T07:30:11;100486.53;;;5.13;100.00
32033;BME280;31720;52.638;9.216;2022-11-24T07:33:14;100485.81;;;5.09;100.00
32033;BME280;31720;52.638;9.216;2022-11-24T07:36:19;100484.03;;;5.10;100.00
32033;BME280;31720;52.638;9.216;2022-11-24T07:39:20;100500.53;;;5.11;100.00
32033;BME280;31720;52.638;9.216;2022-11-24T07:42:22;100496.22;;;5.09;100.00
32033;BME280;31720;52.638;9.216;2022-11-24T07:45:23;100512.72;;;5.08;100.00
32033;BME280;31720;52.638;9.216;2022-11-24T07:48:26;100518.06;;;5.05;100.00
32033;BME280;31720;52.638;9.216;2022-11-24T07:51:28;100522.53;;;5.02;100.00
32033;BME280;31720;52.638;9.216;2022-11-24T07:54:29;100526.03;;;5.01;100.00
32033;BME280;31720;52.638;9.216;2022-11-24T07:57:31;100525.97;;;5.02;100.00
32033;BME280;31720;52.638;9.216;2022-11-24T08:00:32;100524.22;;;5.03;100.00
32033;BME280;31720;52.638;9.216;2022-11-24T08:03:35;100533.69;;;5.05;100.00
32033;BME280;31720;52.638;9.216;2022-11-24T08:06:37;100534.53;;;5.06;100.00
32033;BME280;31720;52.638;9.216;2022-11-24T08:09:38;100541.22;;;5.13;100.00
32033;BME280;31720;52.638;9.216;2022-11-24T08:12:40;100536.88;;;5.14;100.00
32033;BME280;31720;52.638;9.216;2022-11-24T08:15:41;100540.06;;;5.22;100.00
32033;BME280;31720;52.638;9.216;2022-11-24T08:18:48;100545.00;;;5.29;100.00
32033;BME280;31720;52.638;9.216;2022-11-24T08:21:50;100538.31;;;5.47;100.00
32033;BME280;31720;52.638;9.216;2022-11-24T08:24:51;100544.84;;;5.59;100.00
32033;BME280;31720;52.638;9.216;2022-11-24T08:27:53;100543.25;;;5.78;100.00
32033;BME280;31720;52.638;9.216;2022-11-24T08:31:00;100541.78;;;5.95;100.00
32033;BME280;31720;52.638;9.216;2022-11-24T08:34:04;100550.03;;;6.07;100.00
32033;BME280;31720;52.638;9.216;2022-11-24T08:37:06;100550.16;;;6.26;100.00
32033;BME280;31720;52.638;9.216;2022-11-24T08:40:08;100552.47;;;6.34;100.00
32033;BME280;31720;52.638;9.216;2022-11-24T08:43:10;100552.00;;;6.46;100.00
32033;BME280;31720;52.638;9.216;2022-11-24T08:46:13;100561.16;;;6.56;100.00
32033;BME280;31720;52.638;9.216;2022-11-24T08:49:17;100570.47;;;6.64;100.00
32033;BME280;31720;52.638;9.216;2022-11-24T08:52:19;100568.16;;;6.78;100.00
32033;BME280;31720;52.638;9.216;2022-11-24T08:55:20;100583.50;;;6.85;100.00
32033;BME280;31720;52.638;9.216;2022-11-24T08:58:21;100580.28;;;7.01;100.00
32033;BME280;31720;52.638;9.216;2022-11-24T09:01:23;100582.31;;;7.15;100.00
32033;BME280;31720;52.638;9.216;2022-11-24T09:04:26;100581.59;;;7.31;100.00
32033;BME280;31720;52.638;9.216;2022-11-24T09:07:27;100584.88;;;7.36;100.00
32033;BME280;31720;52.638;9.216;2022-11-24T09:10:29;100592.44;;;7.43;100.00
32033;BME280;31720;52.638;9.216;2022-11-24T09:13:30;100587.00;;;7.47;100.00
32033;BME280;31720;52.638;9.216;2022-11-24T09:16:32;100594.75;;;7.50;100.00
32033;BME280;31720;52.638;9.216;2022-11-24T09:19:35;100596.50;;;7.50;100.00
32033;BME280;31720;52.638;9.216;2022-11-24T09:22:36;100600.94;;;7.48;100.00
32033;BME280;31720;52.638;9.216;2022-11-24T09:25:40;100603.28;;;7.54;100.00
32033;BME280;31720;52.638;9.216;2022-11-24T09:28:42;100605.03;;;7.53;100.00
32033;BME280;31720;52.638;9.216;2022-11-24T09:31:43;100609.22;;;7.57;100.00
32033;BME280;31720;52.638;9.216;2022-11-24T09:34:46;100605.53;;;7.63;100.00
32033;BME280;31720;52.638;9.216;2022-11-24T09:37:47;100613.88;;;7.71;100.00
32033;BME280;31720;52.638;9.216;2022-11-24T09:40:51;100611.13;;;7.74;100.00
32033;BME280;31720;52.638;9.216;2022-11-24T09:43:59;100609.22;;;7.78;100.00
32033;BME280;31720;52.638;9.216;2022-11-24T09:47:11;100615.03;;;7.84;100.00
32033;BME280;31720;52.638;9.216;2022-11-24T09:50:18;100625.81;;;7.97;100.00
32033;BME280;31720;52.638;9.216;2022-11-24T09:53:26;100630.75;;;8.03;100.00
32033;BME280;31720;52.638;9.216;2022-11-24T09:56:33;100630.56;;;8.08;100.00
32033;BME280;31720;52.638;9.216;2022-11-24T09:59:38;100629.16;;;8.20;100.00
32033;BME280;31720;52.638;9.216;2022-11-24T10:02:41;100625.47;;;8.24;100.00
32033;BME280;31720;52.638;9.216;2022-11-24T10:05:47;100634.94;;;8.26;100.00
32033;BME280;31720;52.638;9.216;2022-11-24T10:09:02;100633.84;;;8.32;100.00
32033;BME280;31720;52.638;9.216;2022-11-24T10:12:14;100642.91;;;8.44;100.00
32033;BME280;31720;52.638;9.216;2022-11-24T10:15:22;100642.72;;;8.48;100.00
32033;BME280;31720;52.638;9.216;2022-11-24T10:18:36;100654.97;;;8.48;100.00
32033;BME280;31720;52.638;9.216;2022-11-24T10:21:53;100648.31;;;8.59;100.00
32033;BME280;31720;52.638;9.216;2022-11-24T10:25:06;100650.97;;;8.58;100.00
32033;BME280;31720;52.638;9.216;2022-11-24T10:28:11;100642.91;;;8.62;100.00
32033;BME280;31720;52.638;9.216;2022-11-24T10:31:21;100653.16;;;8.67;100.00
32033;BME280;31720;52.638;9.216;2022-11-24T10:34:24;100656.16;;;8.59;100.00
32033;BME280;31720;52.638;9.216;2022-11-24T10:37:32;100663.31;;;8.56;100.00
32033;BME280;31720;52.638;9.216;2022-11-24T10:40:37;100659.78;;;8.57;100.00
32033;BME280;31720;52.638;9.216;2022-11-24T10:43:41;100664.88;;;8.60;100.00
32033;BME280;31720;52.638;9.216;2022-11-24T10:46:43;100666.66;;;8.59;100.00
32033;BME280;31720;52.638;9.216;2022-11-24T10:49:51;100667.19;;;8.66;100.00
32033;BME280;31720;52.638;9.216;2022-11-24T10:53:02;100663.09;;;8.79;100.00
32033;BME280;31720;52.638;9.216;2022-11-24T10:56:06;100668.09;;;8.84;100.00
32033;BME280;31720;52.638;9.216;2022-11-24T10:59:26;100681.06;;;8.87;100.00
32033;BME280;31720;52.638;9.216;2022-11-24T11:02:31;100669.34;;;8.94;100.00
32033;BME280;31720;52.638;9.216;2022-11-24T11:05:37;100667.00;;;9.07;100.00
32033;BME280;31720;52.638;9.216;2022-11-24T11:08:43;100660.09;;;9.23;100.00
32033;BME280;31720;52.638;9.216;2022-11-24T11:11:45;100663.25;;;9.30;100.00
32033;BME280;31720;52.638;9.216;2022-11-24T11:14:47;100662.88;;;9.37;100.00
32033;BME280;31720;52.638;9.216;2022-11-24T11:17:50;100672.50;;;9.72;100.00
32033;BME280;31720;52.638;9.216;2022-11-24T11:20:58;100668.91;;;9.74;100.00
32033;BME280;31720;52.638;9.216;2022-11-24T11:24:09;100668.66;;;9.79;100.00
32033;BME280;31720;52.638;9.216;2022-11-24T11:27:17;100672.03;;;9.81;100.00
32033;BME280;31720;52.638;9.216;2022-11-24T11:30:22;100681.09;;;9.75;100.00
32033;BME280;31720;52.638;9.216;2022-11-24T11:33:26;100687.88;;;9.62;100.00
32033;BME280;31720;52.638;9.216;2022-11-24T11:36:30;100692.75;;;9.52;100.00
32033;BME280;31720;52.638;9.216;2022-11-24T11:39:34;100694.59;;;9.50;100.00
32033;BME280;31720;52.638;9.216;2022-11-24T11:42:40;100697.22;;;9.50;100.00
32033;BME280;31720;52.638;9.216;2022-11-24T11:45:45;100700.31;;;9.41;100.00
32033;BME280;31720;52.638;9.216;2022-11-24T11:48:46;100702.16;;;9.39;100.00
32033;BME280;31720;52.638;9.216;2022-11-24T11:51:58;100700.22;;;9.43;100.00
32033;BME280;31720;52.638;9.216;2022-11-24T11:55:30;100717.88;;;9.39;100.00
32033;BME280;31720;52.638;9.216;2022-11-24T11:58:55;100709.56;;;9.65;100.00
32033;BME280;31720;52.638;9.216;2022-11-24T12:02:17;100705.41;;;9.61;100.00
32033;BME280;31720;52.638;9.216;2022-11-24T12:05:29;100711.44;;;9.63;100.00
32033;BME280;31720;52.638;9.216;2022-11-24T12:08:43;100709.72;;;9.45;100.00
32033;BME280;31720;52.638;9.216;2022-11-24T12:12:03;100722.72;;;9.29;100.00
32033;BME280;31720;52.638;9.216;2022-11-24T12:15:16;100722.31;;;9.20;100.00
32033;BME280;31720;52.638;9.216;2022-11-24T12:18:29;100726.44;;;9.06;100.00
32033;BME280;31720;52.638;9.216;2022-11-24T12:21:34;100734.84;;;8.96;100.00
32033;BME280;31720;52.638;9.216;2022-11-24T12:24:48;100739.06;;;8.98;100.00
32033;BME280;31720;52.638;9.216;2022-11-24T12:28:07;100746.16;;;8.96;100.00
32033;BME280;31720;52.638;9.216;2022-11-24T12:31:21;100742.75;;;8.94;100.00
32033;BME280;31720;52.638;9.216;2022-11-24T12:34:35;100758.75;;;8.88;100.00
32033;BME280;31720;52.638;9.216;2022-11-24T12:37:51;100761.47;;;8.86;100.00
32033;BME280;31720;52.638;9.216;2022-11-24T12:41:16;100753.53;;;8.88;100.00
32033;BME280;31720;52.638;9.216;2022-11-24T12:44:35;100755.00;;;8.75;100.00
32033;BME280;31720;52.638;9.216;2022-11-24T12:47:58;100757.50;;;8.78;100.00
32033;BME280;31720;52.638;9.216;2022-11-24T12:51:10;100766.41;;;8.74;100.00
32033;BME280;31720;52.638;9.216;2022-11-24T12:54:18;100767.03;;;8.60;100.00
32033;BME280;31720;52.638;9.216;2022-11-24T12:57:26;100766.91;;;8.63;100.00
32033;BME280;31720;52.638;9.216;2022-11-24T13:00:35;100765.19;;;8.62;100.00
32033;BME280;31720;52.638;9.216;2022-11-24T13:03:45;100773.00;;;8.63;100.00
32033;BME280;31720;52.638;9.216;2022-11-24T13:06:52;100780.06;;;8.61;100.00
32033;BME280;31720;52.638;9.216;2022-11-24T13:10:26;100783.19;;;8.70;100.00
32033;BME280;31720;52.638;9.216;2022-11-24T13:13:55;100786.97;;;8.62;100.00
32033;BME280;31720;52.638;9.216;2022-11-24T13:17:00;100786.97;;;8.62;100.00
32033;BME280;31720;52.638;9.216;2022-11-24T13:20:22;100786.94;;;8.64;100.00
32033;BME280;31720;52.638;9.216;2022-11-24T13:23:25;100790.91;;;8.73;100.00
32033;BME280;31720;52.638;9.216;2022-11-24T13:26:29;100788.09;;;8.77;100.00
32033;BME280;31720;52.638;9.216;2022-11-24T13:29:34;100794.22;;;8.76;100.00
32033;BME280;31720;52.638;9.216;2022-11-24T13:33:02;100794.44;;;8.72;100.00
32033;BME280;31720;52.638;9.216;2022-11-24T13:36:31;100801.53;;;8.70;100.00
32033;BME280;31720;52.638;9.216;2022-11-24T13:39:46;100804.56;;;8.60;100.00
32033;BME280;31720;52.638;9.216;2022-11-24T13:43:18;100816.47;;;8.68;100.00
32033;BME280;31720;52.638;9.216;2022-11-24T13:49:56;100821.72;;;8.68;100.00
32033;BME280;31720;52.638;9.216;2022-11-24T13:53:07;100819.09;;;8.68;100.00
32033;BME280;31720;52.638;9.216;2022-11-24T13:56:21;100823.41;;;8.69;100.00
32033;BME280;31720;52.638;9.216;2022-11-24T13:59:30;100832.97;;;8.70;100.00
32033;BME280;31720;52.638;9.216;2022-11-24T14:02:34;100832.88;;;8.71;100.00
32033;BME280;31720;52.638;9.216;2022-11-24T14:05:39;100838.19;;;8.70;100.00
32033;BME280;31720;52.638;9.216;2022-11-24T14:08:45;100837.66;;;8.82;100.00
32033;BME280;31720;52.638;9.216;2022-11-24T14:11:56;100832.91;;;8.90;100.00
32033;BME280;31720;52.638;9.216;2022-11-24T14:15:19;100832.66;;;8.96;100.00
32033;BME280;31720;52.638;9.216;2022-11-24T14:18:21;100824.06;;;8.93;100.00
32033;BME280;31720;52.638;9.216;2022-11-24T14:21:27;100822.78;;;8.82;100.00
32033;BME280;31720;52.638;9.216;2022-11-24T14:24:31;100838.13;;;8.71;100.00
32033;BME280;31720;52.638;9.216;2022-11-24T14:27:34;100843.56;;;8.67;100.00
32033;BME280;31720;52.638;9.216;2022-11-24T14:30:36;100856.94;;;8.60;100.00
32033;BME280;31720;52.638;9.216;2022-11-24T14:33:38;100864.72;;;8.62;100.00
32033;BME280;31720;52.638;9.216;2022-11-24T14:36:41;100865.84;;;8.56;100.00
32033;BME280;31720;52.638;9.216;2022-11-24T14:39:43;100871.28;;;8.52;100.00
32033;BME280;31720;52.638;9.216;2022-11-24T14:42:48;100878.38;;;8.50;100.00
32033;BME280;31720;52.638;9.216;2022-11-24T14:45:52;100872.22;;;8.51;100.00
32033;BME280;31720;52.638;9.216;2022-11-24T14:48:55;100873.91;;;8.52;100.00
32033;BME280;31720;52.638;9.216;2022-11-24T14:52:00;100877.38;;;8.52;100.00
32033;BME280;31720;52.638;9.216;2022-11-24T14:55:03;100875.69;;;8.51;100.00
32033;BME280;31720;52.638;9.216;2022-11-24T14:58:19;100884.44;;;8.50;100.00
32033;BME280;31720;52.638;9.216;2022-11-24T15:01:28;100880.19;;;8.48;100.00
32033;BME280;31720;52.638;9.216;2022-11-24T15:04:30;100885.50;;;8.46;100.00
32033;BME280;31720;52.638;9.216;2022-11-24T15:07:34;100885.63;;;8.43;100.00
32033;BME280;31720;52.638;9.216;2022-11-24T15:10:37;100877.75;;;8.43;100.00
32033;BME280;31720;52.638;9.216;2022-11-24T15:13:50;100887.59;;;8.38;100.00
32033;BME280;31720;52.638;9.216;2022-11-24T15:16:53;100891.28;;;8.32;100.00
32033;BME280;31720;52.638;9.216;2022-11-24T15:19:57;100884.53;;;8.27;100.00
32033;BME280;31720;52.638;9.216;2022-11-24T15:23:23;100875.97;;;8.23;100.00
32033;BME280;31720;52.638;9.216;2022-11-24T15:26:29;100882.41;;;8.14;100.00
32033;BME280;31720;52.638;9.216;2022-11-24T15:29:31;100884.41;;;8.08;100.00
32033;BME280;31720;52.638;9.216;2022-11-24T15:32:32;100891.59;;;8.03;100.00
32033;BME280;31720;52.638;9.216;2022-11-24T15:35:34;100899.59;;;8.00;100.00
32033;BME280;31720;52.638;9.216;2022-11-24T15:38:37;100902.34;;;7.97;100.00
32033;BME280;31720;52.638;9.216;2022-11-24T15:41:39;100911.88;;;7.98;100.00
32033;BME280;31720;52.638;9.216;2022-11-24T15:44:41;100913.53;;;8.00;100.00
32033;BME280;31720;52.638;9.216;2022-11-24T15:47:42;100914.44;;;7.99;100.00
32033;BME280;31720;52.638;9.216;2022-11-24T15:50:44;100920.59;;;7.98;100.00
32033;BME280;31720;52.638;9.216;2022-11-24T15:53:49;100927.59;;;7.98;100.00
32033;BME280;31720;52.638;9.216;2022-11-24T15:56:51;100926.66;;;7.99;100.00
32033;BME280;31720;52.638;9.216;2022-11-24T15:59:53;100931.13;;;7.97;100.00
32033;BME280;31720;52.638;9.216;2022-11-24T16:02:54;100936.28;;;7.98;100.00
32033;BME280;31720;52.638;9.216;2022-11-24T16:05:56;100946.72;;;8.00;100.00
32033;BME280;31720;52.638;9.216;2022-11-24T16:08:59;100942.31;;;8.00;100.00
32033;BME280;31720;52.638;9.216;2022-11-24T16:12:00;100940.84;;;7.93;100.00